Terminal Aerodrome Forecast
Issued by NWS

Home | Current Version | Previous Version | Text Only | Print | Product List | Glossary On
Versions: 1 2 3 4 5 6 7 8 9 10 11 12 13 14 15 16 17 18 19 20 21 22 23 24 25 26 27 28 29
173
FTUS43 KTOP 240340 AAA
TAFFOE
TAF AMD
KFOE 240340Z 2404/2424 11007KT 5SM BR SKC
      TEMPO 2406/2410 6SM BR
     FM241000 14013KT P6SM SCT120
     FM241600 17016G24KT P6SM SCT050
     FM242000 21016G24KT P6SM SCT150
     FM242300 24012KT P6SM SCT090=

USA.gov is the U.S. government's official web portal to all federal, state and local government web resources and services.